sensor_id;sensor_type;location;lat;lon;timestamp;pressure;altitude;pressure_sealevel;temperature;humidity
55263;BME280;41125;48.752;9.168;2022-12-18T00:00:04;97890.63;;;-7.79;85.89
55263;BME280;41125;48.752;9.168;2022-12-18T00:00:40;97896.56;;;-7.77;85.81
55263;BME280;41125;48.752;9.168;2022-12-18T00:01:24;97896.41;;;-7.75;85.55
55263;BME280;41125;48.752;9.168;2022-12-18T00:01:57;97899.88;;;-7.74;85.30
55263;BME280;41125;48.752;9.168;2022-12-18T00:02:32;97899.03;;;-7.75;85.33
55263;BME280;41125;48.752;9.168;2022-12-18T00:03:03;97898.22;;;-7.75;85.28
55263;BME280;41125;48.752;9.168;2022-12-18T00:03:35;97905.16;;;-7.74;85.35
55263;BME280;41125;48.752;9.168;2022-12-18T00:04:14;97901.00;;;-7.77;85.21
55263;BME280;41125;48.752;9.168;2022-12-18T00:04:46;97904.63;;;-7.78;85.47
55263;BME280;41125;48.752;9.168;2022-12-18T00:05:17;97896.66;;;-7.86;85.28
55263;BME280;41125;48.752;9.168;2022-12-18T00:05:50;97904.41;;;-7.85;85.21
55263;BME280;41125;48.752;9.168;2022-12-18T00:06:23;97903.88;;;-7.88;85.38
55263;BME280;41125;48.752;9.168;2022-12-18T00:06:55;97907.47;;;-7.89;85.51
55263;BME280;41125;48.752;9.168;2022-12-18T00:07:35;97910.13;;;-7.89;85.48
55263;BME280;41125;48.752;9.168;2022-12-18T00:08:07;97909.44;;;-7.91;85.62
55263;BME280;41125;48.752;9.168;2022-12-18T00:08:41;97905.81;;;-7.90;85.56
55263;BME280;41125;48.752;9.168;2022-12-18T00:09:13;97900.03;;;-7.94;85.58
55263;BME280;41125;48.752;9.168;2022-12-18T00:09:47;97909.81;;;-7.86;85.51
55263;BME280;41125;48.752;9.168;2022-12-18T00:10:18;97906.34;;;-7.87;85.36
55263;BME280;41125;48.752;9.168;2022-12-18T00:10:49;97903.88;;;-7.88;85.34
55263;BME280;41125;48.752;9.168;2022-12-18T00:11:22;97897.78;;;-7.89;85.49
55263;BME280;41125;48.752;9.168;2022-12-18T00:11:54;97901.09;;;-7.87;85.41
55263;BME280;41125;48.752;9.168;2022-12-18T00:12:25;97901.75;;;-7.85;85.53
55263;BME280;41125;48.752;9.168;2022-12-18T00:12:57;97899.94;;;-7.84;85.41
55263;BME280;41125;48.752;9.168;2022-12-18T00:13:29;97901.59;;;-7.83;85.56
55263;BME280;41125;48.752;9.168;2022-12-18T00:14:00;97905.22;;;-7.84;85.30
55263;BME280;41125;48.752;9.168;2022-12-18T00:14:32;97904.56;;;-7.86;85.26
55263;BME280;41125;48.752;9.168;2022-12-18T00:15:04;97904.56;;;-7.86;85.15
55263;BME280;41125;48.752;9.168;2022-12-18T00:15:37;97911.63;;;-7.87;85.36
55263;BME280;41125;48.752;9.168;2022-12-18T00:16:12;97900.25;;;-7.87;85.30
55263;BME280;41125;48.752;9.168;2022-12-18T00:16:45;97896.94;;;-7.89;85.34
55263;BME280;41125;48.752;9.168;2022-12-18T00:17:17;97909.97;;;-7.88;85.26
55263;BME280;41125;48.752;9.168;2022-12-18T00:17:48;97914.41;;;-7.88;85.38
55263;BME280;41125;48.752;9.168;2022-12-18T00:18:19;97910.78;;;-7.87;85.38
55263;BME280;41125;48.752;9.168;2022-12-18T00:18:54;97904.03;;;-7.90;85.31
55263;BME280;41125;48.752;9.168;2022-12-18T00:19:25;97909.59;;;-7.93;85.23
55263;BME280;41125;48.752;9.168;2022-12-18T00:19:57;97907.09;;;-7.94;85.42
55263;BME280;41125;48.752;9.168;2022-12-18T00:20:28;97903.78;;;-7.96;85.54
55263;BME280;41125;48.752;9.168;2022-12-18T00:21:05;97913.69;;;-7.98;85.58
55263;BME280;41125;48.752;9.168;2022-12-18T00:21:36;97915.34;;;-7.97;85.58
55263;BME280;41125;48.752;9.168;2022-12-18T00:22:07;97909.75;;;-7.94;85.68
55263;BME280;41125;48.752;9.168;2022-12-18T00:22:39;97907.25;;;-7.96;85.28
55263;BME280;41125;48.752;9.168;2022-12-18T00:23:10;97913.34;;;-7.95;85.19
55263;BME280;41125;48.752;9.168;2022-12-18T00:23:43;97904.81;;;-7.97;85.23
55263;BME280;41125;48.752;9.168;2022-12-18T00:24:15;97905.09;;;-8.00;85.11
55263;BME280;41125;48.752;9.168;2022-12-18T00:24:46;97906.25;;;-8.03;85.42
55263;BME280;41125;48.752;9.168;2022-12-18T00:25:21;97907.50;;;-8.07;85.48
55263;BME280;41125;48.752;9.168;2022-12-18T00:25:54;97904.06;;;-8.07;85.47
55263;BME280;41125;48.752;9.168;2022-12-18T00:26:28;97903.22;;;-8.08;85.79
55263;BME280;41125;48.752;9.168;2022-12-18T00:27:01;97903.38;;;-8.09;85.69
55263;BME280;41125;48.752;9.168;2022-12-18T00:27:32;97906.69;;;-8.07;85.74
55263;BME280;41125;48.752;9.168;2022-12-18T00:28:03;97903.44;;;-8.01;85.57
55263;BME280;41125;48.752;9.168;2022-12-18T00:28:35;97901.16;;;-7.96;85.25
55263;BME280;41125;48.752;9.168;2022-12-18T00:29:12;97899.22;;;-7.94;85.00
55263;BME280;41125;48.752;9.168;2022-12-18T00:29:44;97899.53;;;-7.97;84.95
55263;BME280;41125;48.752;9.168;2022-12-18T00:30:16;97899.84;;;-8.00;85.24
55263;BME280;41125;48.752;9.168;2022-12-18T00:30:47;97899.84;;;-8.00;85.09
55263;BME280;41125;48.752;9.168;2022-12-18T00:31:23;97902.63;;;-8.02;85.09
55263;BME280;41125;48.752;9.168;2022-12-18T00:31:55;97901.78;;;-8.02;85.07
55263;BME280;41125;48.752;9.168;2022-12-18T00:32:26;97892.91;;;-8.01;85.11
55263;BME280;41125;48.752;9.168;2022-12-18T00:32:58;97900.66;;;-8.00;85.29
55263;BME280;41125;48.752;9.168;2022-12-18T00:33:29;97902.19;;;-7.97;85.10
55263;BME280;41125;48.752;9.168;2022-12-18T00:34:00;97894.28;;;-7.97;84.79
55263;BME280;41125;48.752;9.168;2022-12-18T00:34:32;97894.56;;;-8.00;84.79
55263;BME280;41125;48.752;9.168;2022-12-18T00:35:04;97902.94;;;-8.05;84.59
55263;BME280;41125;48.752;9.168;2022-12-18T00:35:36;97897.97;;;-8.08;84.58
55263;BME280;41125;48.752;9.168;2022-12-18T00:36:14;97897.97;;;-8.08;84.89
55263;BME280;41125;48.752;9.168;2022-12-18T00:36:47;97900.44;;;-8.06;84.87
55263;BME280;41125;48.752;9.168;2022-12-18T00:37:19;97898.50;;;-8.04;84.90
55263;BME280;41125;48.752;9.168;2022-12-18T00:37:57;97910.97;;;-8.06;84.40
55263;BME280;41125;48.752;9.168;2022-12-18T00:38:29;97911.28;;;-8.09;84.38
55263;BME280;41125;48.752;9.168;2022-12-18T00:39:03;97907.97;;;-8.12;84.69
55263;BME280;41125;48.752;9.168;2022-12-18T00:39:35;97911.88;;;-8.16;84.61
55263;BME280;41125;48.752;9.168;2022-12-18T00:40:08;97910.22;;;-8.17;84.90
55263;BME280;41125;48.752;9.168;2022-12-18T00:40:39;97912.69;;;-8.15;84.92
55263;BME280;41125;48.752;9.168;2022-12-18T00:41:12;97915.47;;;-8.17;84.77
55263;BME280;41125;48.752;9.168;2022-12-18T00:41:44;97917.12;;;-8.16;84.90
55263;BME280;41125;48.752;9.168;2022-12-18T00:42:34;97920.16;;;-8.11;84.42
55263;BME280;41125;48.752;9.168;2022-12-18T00:43:23;97918.19;;;-8.08;84.42
55263;BME280;41125;48.752;9.168;2022-12-18T00:43:54;97913.09;;;-8.10;84.20
55263;BME280;41125;48.752;9.168;2022-12-18T00:44:25;97916.25;;;-8.06;84.34
55263;BME280;41125;48.752;9.168;2022-12-18T00:44:57;97909.31;;;-8.07;84.17
55263;BME280;41125;48.752;9.168;2022-12-18T00:45:30;97911.28;;;-8.09;84.39
55263;BME280;41125;48.752;9.168;2022-12-18T00:46:02;97912.69;;;-8.15;84.07
55263;BME280;41125;48.752;9.168;2022-12-18T00:46:34;97913.81;;;-8.18;84.39
55263;BME280;41125;48.752;9.168;2022-12-18T00:47:05;97909.97;;;-8.23;84.41
55263;BME280;41125;48.752;9.168;2022-12-18T00:47:36;97915.78;;;-8.20;84.49
55263;BME280;41125;48.752;9.168;2022-12-18T00:48:07;97913.44;;;-8.23;84.32
55263;BME280;41125;48.752;9.168;2022-12-18T00:48:38;97918.03;;;-8.25;84.43
55263;BME280;41125;48.752;9.168;2022-12-18T00:49:10;97913.06;;;-8.28;84.52
55263;BME280;41125;48.752;9.168;2022-12-18T00:49:41;97926.72;;;-8.32;84.71
55263;BME280;41125;48.752;9.168;2022-12-18T00:50:13;97917.34;;;-8.35;84.82
55263;BME280;41125;48.752;9.168;2022-12-18T00:50:46;97925.06;;;-8.33;84.83
55263;BME280;41125;48.752;9.168;2022-12-18T00:51:18;97923.56;;;-8.36;84.98
55263;BME280;41125;48.752;9.168;2022-12-18T00:51:50;97922.59;;;-8.35;85.03
55263;BME280;41125;48.752;9.168;2022-12-18T00:52:21;97919.28;;;-8.37;84.84
55263;BME280;41125;48.752;9.168;2022-12-18T00:52:52;97916.94;;;-8.40;84.85
55263;BME280;41125;48.752;9.168;2022-12-18T00:53:25;97917.91;;;-8.41;84.96
55263;BME280;41125;48.752;9.168;2022-12-18T00:53:56;97917.09;;;-8.41;84.88
55263;BME280;41125;48.752;9.168;2022-12-18T00:54:27;97921.53;;;-8.42;85.11
55263;BME280;41125;48.752;9.168;2022-12-18T00:54:59;97922.50;;;-8.43;85.08
55263;BME280;41125;48.752;9.168;2022-12-18T00:55:30;97921.53;;;-8.42;84.99
55263;BME280;41125;48.752;9.168;2022-12-18T00:56:03;97921.53;;;-8.42;85.01
55263;BME280;41125;48.752;9.168;2022-12-18T00:56:36;97924.16;;;-8.42;85.09
55263;BME280;41125;48.752;9.168;2022-12-18T00:57:08;97930.09;;;-8.40;85.01
55263;BME280;41125;48.752;9.168;2022-12-18T00:57:39;97918.75;;;-8.40;84.92
55263;BME280;41125;48.752;9.168;2022-12-18T00:58:11;97914.31;;;-8.40;84.95
55263;BME280;41125;48.752;9.168;2022-12-18T00:58:43;97915.97;;;-8.39;85.06
55263;BME280;41125;48.752;9.168;2022-12-18T00:59:15;97918.31;;;-8.36;84.91
55263;BME280;41125;48.752;9.168;2022-12-18T00:59:46;97920.25;;;-8.38;84.68
55263;BME280;41125;48.752;9.168;2022-12-18T01:00:18;97912.81;;;-8.42;84.70
55263;BME280;41125;48.752;9.168;2022-12-18T01:00:49;97922.78;;;-8.46;84.72
55263;BME280;41125;48.752;9.168;2022-12-18T01:01:21;97920.47;;;-8.49;84.81
55263;BME280;41125;48.752;9.168;2022-12-18T01:01:52;97921.03;;;-8.55;84.89
55263;BME280;41125;48.752;9.168;2022-12-18T01:02:23;97917.44;;;-8.54;84.86
55263;BME280;41125;48.752;9.168;2022-12-18T01:02:54;97917.44;;;-8.54;84.83
55263;BME280;41125;48.752;9.168;2022-12-18T01:03:26;97924.66;;;-8.56;84.72
55263;BME280;41125;48.752;9.168;2022-12-18T01:04:02;97921.03;;;-8.55;84.89
55263;BME280;41125;48.752;9.168;2022-12-18T01:04:33;97919.09;;;-8.53;84.98
55263;BME280;41125;48.752;9.168;2022-12-18T01:05:06;97918.13;;;-8.52;84.95
55263;BME280;41125;48.752;9.168;2022-12-18T01:05:39;97916.16;;;-8.50;85.32
55263;BME280;41125;48.752;9.168;2022-12-18T01:06:12;97917.69;;;-8.48;85.07
55263;BME280;41125;48.752;9.168;2022-12-18T01:06:44;97914.59;;;-8.43;84.87
55263;BME280;41125;48.752;9.168;2022-12-18T01:07:15;97919.87;;;-8.43;84.45
55263;BME280;41125;48.752;9.168;2022-12-18T01:07:46;97917.91;;;-8.41;84.30
55263;BME280;41125;48.752;9.168;2022-12-18T01:08:18;97913.19;;;-8.37;84.05
55263;BME280;41125;48.752;9.168;2022-12-18T01:08:50;97913.19;;;-8.37;84.02
55263;BME280;41125;48.752;9.168;2022-12-18T01:09:24;97913.63;;;-8.42;83.90
55263;BME280;41125;48.752;9.168;2022-12-18T01:09:56;97911.97;;;-8.43;84.25
55263;BME280;41125;48.752;9.168;2022-12-18T01:10:27;97913.63;;;-8.42;84.39
55263;BME280;41125;48.752;9.168;2022-12-18T01:10:58;97916.25;;;-8.42;84.50
55263;BME280;41125;48.752;9.168;2022-12-18T01:11:30;97918.06;;;-8.42;84.35
55263;BME280;41125;48.752;9.168;2022-12-18T01:12:01;97913.78;;;-8.43;84.41
55263;BME280;41125;48.752;9.168;2022-12-18T01:12:33;97917.09;;;-8.41;84.34
55263;BME280;41125;48.752;9.168;2022-12-18T01:13:04;97917.63;;;-8.38;84.28
55263;BME280;41125;48.752;9.168;2022-12-18T01:13:36;97918.31;;;-8.36;83.86
55263;BME280;41125;48.752;9.168;2022-12-18T01:14:08;97919.97;;;-8.35;83.96
55263;BME280;41125;48.752;9.168;2022-12-18T01:14:39;97912.34;;;-8.38;83.84
55263;BME280;41125;48.752;9.168;2022-12-18T01:15:13;97910.13;;;-8.33;84.01
55263;BME280;41125;48.752;9.168;2022-12-18T01:15:49;97910.13;;;-8.33;83.79
55263;BME280;41125;48.752;9.168;2022-12-18T01:16:21;97908.47;;;-8.34;83.74
55263;BME280;41125;48.752;9.168;2022-12-18T01:16:52;97907.09;;;-8.38;83.87
55263;BME280;41125;48.752;9.168;2022-12-18T01:17:24;97917.91;;;-8.41;84.02
55263;BME280;41125;48.752;9.168;2022-12-18T01:17:59;97910.16;;;-8.42;84.09
55263;BME280;41125;48.752;9.168;2022-12-18T01:18:30;97917.25;;;-8.43;84.29
55263;BME280;41125;48.752;9.168;2022-12-18T01:19:01;97919.03;;;-8.43;84.17
55263;BME280;41125;48.752;9.168;2022-12-18T01:19:33;97911.00;;;-8.42;84.05
55263;BME280;41125;48.752;9.168;2022-12-18T01:20:06;97903.78;;;-8.40;84.15
55263;BME280;41125;48.752;9.168;2022-12-18T01:20:38;97915.00;;;-8.38;84.02
55263;BME280;41125;48.752;9.168;2022-12-18T01:21:15;97912.34;;;-8.38;84.02
55263;BME280;41125;48.752;9.168;2022-12-18T01:21:47;97913.34;;;-8.39;84.22
55263;BME280;41125;48.752;9.168;2022-12-18T01:22:18;97903.78;;;-8.40;84.32
55263;BME280;41125;48.752;9.168;2022-12-18T01:22:49;97916.12;;;-8.40;84.42
55263;BME280;41125;48.752;9.168;2022-12-18T01:23:24;97917.09;;;-8.41;84.57
55263;BME280;41125;48.752;9.168;2022-12-18T01:23:56;97914.59;;;-8.43;84.62
55263;BME280;41125;48.752;9.168;2022-12-18T01:24:28;97916.25;;;-8.42;84.29
55263;BME280;41125;48.752;9.168;2022-12-18T01:24:59;97919.72;;;-8.41;84.37
55263;BME280;41125;48.752;9.168;2022-12-18T01:25:32;97921.53;;;-8.42;84.44
55263;BME280;41125;48.752;9.168;2022-12-18T01:26:08;97921.00;;;-8.46;84.50
55263;BME280;41125;48.752;9.168;2022-12-18T01:26:40;97924.59;;;-8.47;84.46
55263;BME280;41125;48.752;9.168;2022-12-18T01:27:13;97923.78;;;-8.47;84.59
55263;BME280;41125;48.752;9.168;2022-12-18T01:27:44;97918.81;;;-8.50;84.59
55263;BME280;41125;48.752;9.168;2022-12-18T01:28:19;97924.91;;;-8.50;84.81
55263;BME280;41125;48.752;9.168;2022-12-18T01:28:50;97927.53;;;-8.50;85.06
55263;BME280;41125;48.752;9.168;2022-12-18T01:29:22;97924.59;;;-8.47;85.16
55263;BME280;41125;48.752;9.168;2022-12-18T01:29:53;97927.09;;;-8.45;84.94
55263;BME280;41125;48.752;9.168;2022-12-18T01:30:24;97927.09;;;-8.45;85.06
55263;BME280;41125;48.752;9.168;2022-12-18T01:30:56;97924.16;;;-8.42;84.92
55263;BME280;41125;48.752;9.168;2022-12-18T01:31:30;97922.50;;;-8.43;85.01
55263;BME280;41125;48.752;9.168;2022-12-18T01:32:04;97925.97;;;-8.42;84.92
55263;BME280;41125;48.752;9.168;2022-12-18T01:32:36;97929.56;;;-8.43;85.13
55263;BME280;41125;48.752;9.168;2022-12-18T01:33:07;97926.78;;;-8.42;84.95
55263;BME280;41125;48.752;9.168;2022-12-18T01:33:39;97921.53;;;-8.42;84.95
55263;BME280;41125;48.752;9.168;2022-12-18T01:34:10;97919.56;;;-8.40;85.04
55263;BME280;41125;48.752;9.168;2022-12-18T01:34:41;97918.44;;;-8.37;84.91
55263;BME280;41125;48.752;9.168;2022-12-18T01:35:12;97915.38;;;-8.33;84.72
55263;BME280;41125;48.752;9.168;2022-12-18T01:35:44;97915.69;;;-8.28;84.71
55263;BME280;41125;48.752;9.168;2022-12-18T01:36:23;97913.06;;;-8.28;84.47
55263;BME280;41125;48.752;9.168;2022-12-18T01:36:55;97914.41;;;-8.24;84.29
55263;BME280;41125;48.752;9.168;2022-12-18T01:37:27;97910.81;;;-8.23;84.18
55263;BME280;41125;48.752;9.168;2022-12-18T01:37:58;97914.41;;;-8.24;84.10
55263;BME280;41125;48.752;9.168;2022-12-18T01:38:30;97914.13;;;-8.21;84.08
55263;BME280;41125;48.752;9.168;2022-12-18T01:39:06;97914.13;;;-8.21;83.88
55263;BME280;41125;48.752;9.168;2022-12-18T01:39:37;97913.97;;;-8.19;83.84
55263;BME280;41125;48.752;9.168;2022-12-18T01:40:11;97921.44;;;-8.15;83.72
55263;BME280;41125;48.752;9.168;2022-12-18T01:40:42;97913.69;;;-8.16;83.64
55263;BME280;41125;48.752;9.168;2022-12-18T01:41:19;97920.91;;;-8.18;83.95
55263;BME280;41125;48.752;9.168;2022-12-18T01:41:50;97914.81;;;-8.19;83.91
55263;BME280;41125;48.752;9.168;2022-12-18T01:42:35;97922.69;;;-8.19;83.87
55263;BME280;41125;48.752;9.168;2022-12-18T01:43:09;97923.53;;;-8.18;83.84
55263;BME280;41125;48.752;9.168;2022-12-18T01:44:46;97923.69;;;-8.20;83.95
55263;BME280;41125;48.752;9.168;2022-12-18T01:45:25;97929.63;;;-8.18;83.87
55263;BME280;41125;48.752;9.168;2022-12-18T01:45:59;97927.16;;;-8.19;84.00
55263;BME280;41125;48.752;9.168;2022-12-18T01:46:30;97926.31;;;-8.20;84.03
55263;BME280;41125;48.752;9.168;2022-12-18T01:47:02;97925.50;;;-8.20;84.08
55263;BME280;41125;48.752;9.168;2022-12-18T01:47:45;97920.81;;;-8.26;84.32
55263;BME280;41125;48.752;9.168;2022-12-18T01:48:17;97917.88;;;-8.23;84.49
55263;BME280;41125;48.752;9.168;2022-12-18T01:48:52;97925.63;;;-8.22;84.52
55263;BME280;41125;48.752;9.168;2022-12-18T01:49:25;97926.31;;;-8.20;84.15
55263;BME280;41125;48.752;9.168;2022-12-18T01:49:57;97925.50;;;-8.20;84.36
55263;BME280;41125;48.752;9.168;2022-12-18T01:50:35;97920.22;;;-8.20;84.51
55263;BME280;41125;48.752;9.168;2022-12-18T01:51:09;97927.66;;;-8.16;84.31
55263;BME280;41125;48.752;9.168;2022-12-18T01:51:41;97920.75;;;-8.17;84.35
55263;BME280;41125;48.752;9.168;2022-12-18T01:52:13;97927.66;;;-8.16;84.31
55263;BME280;41125;48.752;9.168;2022-12-18T01:52:51;97918.25;;;-8.18;84.31
55263;BME280;41125;48.752;9.168;2022-12-18T01:53:24;97918.13;;;-8.17;84.47
55263;BME280;41125;48.752;9.168;2022-12-18T01:53:55;97927.00;;;-8.18;84.47
55263;BME280;41125;48.752;9.168;2022-12-18T01:54:28;97919.09;;;-8.18;84.54
55263;BME280;41125;48.752;9.168;2022-12-18T01:55:02;97925.72;;;-8.14;84.69
55263;BME280;41125;48.752;9.168;2022-12-18T01:55:45;97927.66;;;-8.16;84.40
55263;BME280;41125;48.752;9.168;2022-12-18T01:56:19;97920.44;;;-8.14;84.57
55263;BME280;41125;48.752;9.168;2022-12-18T01:56:51;97924.06;;;-8.15;84.47
55263;BME280;41125;48.752;9.168;2022-12-18T01:57:26;97925.72;;;-8.14;84.60
55263;BME280;41125;48.752;9.168;2022-12-18T01:57:59;97930.16;;;-8.14;84.63
55263;BME280;41125;48.752;9.168;2022-12-18T01:59:09;97930.31;;;-8.16;84.79
55263;BME280;41125;48.752;9.168;2022-12-18T01:59:43;97930.97;;;-8.14;84.89
55263;BME280;41125;48.752;9.168;2022-12-18T02:00:19;97928.50;;;-8.15;84.83
55263;BME280;41125;48.752;9.168;2022-12-18T02:00:51;97926.53;;;-8.13;84.71
55263;BME280;41125;48.752;9.168;2022-12-18T02:01:24;97925.72;;;-8.14;84.63
55263;BME280;41125;48.752;9.168;2022-12-18T02:01:56;97925.88;;;-8.15;84.52
55263;BME280;41125;48.752;9.168;2022-12-18T02:02:28;97925.88;;;-8.15;84.81
55263;BME280;41125;48.752;9.168;2022-12-18T02:03:01;97917.12;;;-8.16;84.93
55263;BME280;41125;48.752;9.168;2022-12-18T02:03:33;97920.75;;;-8.17;84.80
55263;BME280;41125;48.752;9.168;2022-12-18T02:04:39;97918.78;;;-8.15;84.64
55263;BME280;41125;48.752;9.168;2022-12-18T02:05:12;97915.19;;;-8.14;84.70
55263;BME280;41125;48.752;9.168;2022-12-18T02:06:27;97912.25;;;-8.11;84.49
55263;BME280;41125;48.752;9.168;2022-12-18T02:07:07;97907.66;;;-8.08;84.33
55263;BME280;41125;48.752;9.168;2022-12-18T02:09:38;97913.22;;;-8.12;84.55
55263;BME280;41125;48.752;9.168;2022-12-18T02:10:57;97913.22;;;-8.12;84.42
55263;BME280;41125;48.752;9.168;2022-12-18T02:12:52;97914.22;;;-8.13;84.58
55263;BME280;41125;48.752;9.168;2022-12-18T02:16:10;97911.66;;;-8.04;84.23
55263;BME280;41125;48.752;9.168;2022-12-18T02:16:59;97910.38;;;-8.00;84.07
55263;BME280;41125;48.752;9.168;2022-12-18T02:17:50;97911.06;;;-7.98;83.93
55263;BME280;41125;48.752;9.168;2022-12-18T02:18:38;97915.66;;;-8.00;83.96
55263;BME280;41125;48.752;9.168;2022-12-18T02:20:44;97918.44;;;-8.02;84.07
55263;BME280;41125;48.752;9.168;2022-12-18T02:21:54;97921.50;;;-8.06;83.75
55263;BME280;41125;48.752;9.168;2022-12-18T02:23:50;97919.09;;;-8.18;84.27
55263;BME280;41125;48.752;9.168;2022-12-18T02:25:13;97924.38;;;-8.18;84.39
55263;BME280;41125;48.752;9.168;2022-12-18T02:26:07;97917.12;;;-8.16;84.41
55263;BME280;41125;48.752;9.168;2022-12-18T02:26:56;97925.56;;;-8.12;83.98
55263;BME280;41125;48.752;9.168;2022-12-18T02:27:31;97923.75;;;-8.12;84.20
55263;BME280;41125;48.752;9.168;2022-12-18T02:28:06;97917.53;;;-8.11;83.93
55263;BME280;41125;48.752;9.168;2022-12-18T02:28:49;97923.47;;;-8.08;84.08
55263;BME280;41125;48.752;9.168;2022-12-18T02:29:23;97917.06;;;-8.06;83.58
55263;BME280;41125;48.752;9.168;2022-12-18T02:30:00;97916.25;;;-8.06;83.45
55263;BME280;41125;48.752;9.168;2022-12-18T02:30:34;97914.59;;;-8.07;83.43
55263;BME280;41125;48.752;9.168;2022-12-18T02:31:08;97909.31;;;-8.07;83.69
55263;BME280;41125;48.752;9.168;2022-12-18T02:31:47;97918.19;;;-8.08;83.59
55263;BME280;41125;48.752;9.168;2022-12-18T02:32:25;97919.84;;;-8.07;83.60
55263;BME280;41125;48.752;9.168;2022-12-18T02:32:59;97920.97;;;-8.10;83.32
55263;BME280;41125;48.752;9.168;2022-12-18T02:33:33;97926.25;;;-8.10;83.51
55263;BME280;41125;48.752;9.168;2022-12-18T02:34:07;97915.03;;;-8.12;83.72
55263;BME280;41125;48.752;9.168;2022-12-18T02:34:41;97929.03;;;-8.12;83.72
55263;BME280;41125;48.752;9.168;2022-12-18T02:35:23;97930.00;;;-8.13;83.48
55263;BME280;41125;48.752;9.168;2022-12-18T02:35:57;97932.62;;;-8.13;83.27
55263;BME280;41125;48.752;9.168;2022-12-18T02:36:32;97935.44;;;-8.14;83.26
55263;BME280;41125;48.752;9.168;2022-12-18T02:37:09;97931.28;;;-8.17;83.12
55263;BME280;41125;48.752;9.168;2022-12-18T02:37:46;97933.22;;;-8.19;83.03
55263;BME280;41125;48.752;9.168;2022-12-18T02:38:18;97937.97;;;-8.22;83.19
55263;BME280;41125;48.752;9.168;2022-12-18T02:38:51;97941.59;;;-8.23;83.14
55263;BME280;41125;48.752;9.168;2022-12-18T02:39:25;97933.81;;;-8.25;83.35
55263;BME280;41125;48.752;9.168;2022-12-18T02:39:58;97944.34;;;-8.25;83.49
55263;BME280;41125;48.752;9.168;2022-12-18T02:40:31;97940.22;;;-8.27;83.47
55263;BME280;41125;48.752;9.168;2022-12-18T02:41:04;97943.97;;;-8.30;83.50
55263;BME280;41125;48.752;9.168;2022-12-18T02:41:37;97943.00;;;-8.29;83.68
55263;BME280;41125;48.752;9.168;2022-12-18T02:42:10;97941.03;;;-8.27;83.42
55263;BME280;41125;48.752;9.168;2022-12-18T02:42:42;97939.38;;;-8.28;83.22
55263;BME280;41125;48.752;9.168;2022-12-18T02:43:15;97939.38;;;-8.28;83.38
55263;BME280;41125;48.752;9.168;2022-12-18T02:43:56;97943.00;;;-8.29;83.43
55263;BME280;41125;48.752;9.168;2022-12-18T02:44:28;97937.72;;;-8.29;83.48
55263;BME280;41125;48.752;9.168;2022-12-18T02:44:59;97939.09;;;-8.25;83.65
55263;BME280;41125;48.752;9.168;2022-12-18T02:45:31;97940.75;;;-8.24;83.32
55263;BME280;41125;48.752;9.168;2022-12-18T02:46:25;97926.06;;;-8.26;83.15
55263;BME280;41125;48.752;9.168;2022-12-18T02:46:58;97935.44;;;-8.32;83.04
55263;BME280;41125;48.752;9.168;2022-12-18T02:47:32;97938.38;;;-8.35;83.38
55263;BME280;41125;48.752;9.168;2022-12-18T02:48:05;97939.06;;;-8.33;83.46
55263;BME280;41125;48.752;9.168;2022-12-18T02:48:36;97938.38;;;-8.35;83.15
55263;BME280;41125;48.752;9.168;2022-12-18T02:49:44;97937.31;;;-8.42;83.13
55263;BME280;41125;48.752;9.168;2022-12-18T02:50:26;97945.94;;;-8.50;83.46
55263;BME280;41125;48.752;9.168;2022-12-18T02:51:17;97947.38;;;-8.55;83.87
55263;BME280;41125;48.752;9.168;2022-12-18T02:53:38;97944.03;;;-8.57;84.32
55263;BME280;41125;48.752;9.168;2022-12-18T02:54:21;97940.44;;;-8.56;84.34
55263;BME280;41125;48.752;9.168;2022-12-18T02:56:20;97949.56;;;-8.51;84.54
55263;BME280;41125;48.752;9.168;2022-12-18T02:56:56;97950.09;;;-8.47;84.75
55263;BME280;41125;48.752;9.168;2022-12-18T02:57:42;97952.56;;;-8.46;84.90
55263;BME280;41125;48.752;9.168;2022-12-18T02:58:57;97950.37;;;-8.50;84.47
55263;BME280;41125;48.752;9.168;2022-12-18T02:59:39;97949.84;;;-8.54;84.32
55263;BME280;41125;48.752;9.168;2022-12-18T03:00:21;97945.16;;;-8.60;84.39
55263;BME280;41125;48.752;9.168;2022-12-18T03:01:21;97946.56;;;-8.65;84.44
55263;BME280;41125;48.752;9.168;2022-12-18T03:03:24;97944.16;;;-8.76;85.02
55263;BME280;41125;48.752;9.168;2022-12-18T03:04:06;97938.91;;;-8.76;84.97
55263;BME280;41125;48.752;9.168;2022-12-18T03:04:53;97940.28;;;-8.72;85.08
55263;BME280;41125;48.752;9.168;2022-12-18T03:05:47;97940.12;;;-8.71;84.96
55263;BME280;41125;48.752;9.168;2022-12-18T03:06:30;97932.38;;;-8.72;84.82
55263;BME280;41125;48.752;9.168;2022-12-18T03:07:06;97931.69;;;-8.74;84.92
55263;BME280;41125;48.752;9.168;2022-12-18T03:08:39;97929.75;;;-8.72;85.13
55263;BME280;41125;48.752;9.168;2022-12-18T03:09:22;97930.72;;;-8.73;85.33
55263;BME280;41125;48.752;9.168;2022-12-18T03:09:56;97925.47;;;-8.73;85.19
55263;BME280;41125;48.752;9.168;2022-12-18T03:10:30;97925.47;;;-8.73;85.16
55263;BME280;41125;48.752;9.168;2022-12-18T03:11:08;97932.38;;;-8.72;84.92
55263;BME280;41125;48.752;9.168;2022-12-18T03:11:48;97928.91;;;-8.73;85.09
55263;BME280;41125;48.752;9.168;2022-12-18T03:12:59;97940.28;;;-8.72;84.97
55263;BME280;41125;48.752;9.168;2022-12-18T03:13:52;97943.03;;;-8.74;85.09
55263;BME280;41125;48.752;9.168;2022-12-18T03:14:29;97942.37;;;-8.76;85.34
55263;BME280;41125;48.752;9.168;2022-12-18T03:16:14;97946.41;;;-8.82;85.63
55263;BME280;41125;48.752;9.168;2022-12-18T03:16:48;97951.66;;;-8.82;85.84
55263;BME280;41125;48.752;9.168;2022-12-18T03:17:23;97952.63;;;-8.83;85.89
55263;BME280;41125;48.752;9.168;2022-12-18T03:18:06;97948.34;;;-8.84;85.98
55263;BME280;41125;48.752;9.168;2022-12-18T03:18:48;97956.38;;;-8.85;86.08
55263;BME280;41125;48.752;9.168;2022-12-18T03:19:23;97956.66;;;-8.88;85.65
55263;BME280;41125;48.752;9.168;2022-12-18T03:19:59;97962.06;;;-8.90;85.96
55263;BME280;41125;48.752;9.168;2022-12-18T03:20:35;97957.78;;;-8.91;85.86
55263;BME280;41125;48.752;9.168;2022-12-18T03:21:09;97961.38;;;-8.92;86.10
55263;BME280;41125;48.752;9.168;2022-12-18T03:21:47;97961.38;;;-8.92;86.24
55263;BME280;41125;48.752;9.168;2022-12-18T03:22:21;97957.94;;;-8.92;86.33
55263;BME280;41125;48.752;9.168;2022-12-18T03:22:59;97965.28;;;-8.96;85.89
55263;BME280;41125;48.752;9.168;2022-12-18T03:23:36;97961.97;;;-8.98;86.15
55263;BME280;41125;48.752;9.168;2022-12-18T03:24:11;97960.44;;;-9.00;85.56